EDT,Max TemperatureF,Mean TemperatureF,Min TemperatureF,Max Dew PointF,MeanDew PointF,Min DewpointF,Max Humidity, Mean Humidity, Min Humidity, Max Sea Level PressureIn, Mean Sea Level PressureIn, Min Sea Level PressureIn, Max VisibilityMiles, Mean VisibilityMiles, Min VisibilityMiles, Max Wind SpeedMPH, Mean Wind SpeedMPH, Max Gust SpeedMPH,PrecipitationIn, CloudCover, Events, WindDirDegrees
2012-10-1,63,56,52,50,48,45,83,72,63,29.95,29.79,29.70,10,10,10,13,8,21,0.00,8,Rain,263
2012-10-2,60,56,53,58,54,51,100,89,72,30.05,30.02,29.96,10,9,2,6,2,,0.09,7,Rain,101
2012-10-3,73,65,57,66,60,57,100,90,73,30.13,30.05,30.02,10,8,2,8,2,,0.02,8,Rain,97
2012-10-4,69,60,53,66,62,53,100,95,87,30.16,30.10,30.05,10,7,0,6,2,,0.22,8,Fog-Rain,116
2012-10-5,75,62,50,59,53,48,100,92,43,30.06,30.02,29.91,10,4,0,10,1,,0.00,6,Fog,248
2012-10-6,73,58,45,57,50,35,97,80,51,29.99,29.84,29.72,10,9,5,15,4,21,0.05,3,Rain,253
2012-10-7,52,46,41,45,39,34,93,75,53,30.09,30.05,29.98,10,10,7,9,3,,0.09,5,Rain,259
2012-10-8,53,45,37,43,40,33,97,81,47,30.32,30.20,30.08,10,10,10,5,1,,0.01,6,Rain,284
2012-10-9,55,45,35,45,40,34,100,81,66,30.30,30.23,30.13,10,8,0,13,4,22,0.00,7,Fog,103
2012-10-10,57,52,46,55,48,37,100,86,71,30.11,29.88,29.75,10,6,2,15,7,31,0.15,8,Rain,80
2012-10-11,53,44,37,36,33,31,89,63,45,30.14,30.07,29.89,10,10,10,16,9,29,0.00,5,Rain,271
2012-10-12,48,40,28,40,32,20,92,72,38,30.42,30.15,30.02,10,10,7,10,4,20,0.07,5,Rain,270
2012-10-13,48,36,23,29,21,19,88,53,31,30.51,30.42,30.27,10,10,10,10,2,,0.00,1,,208
2012-10-14,63,53,43,52,46,35,100,81,56,30.20,30.05,29.89,10,8,2,10,4,32,0.36,5,Rain,119
2012-10-15,68,62,55,61,54,46,100,77,54,29.88,29.70,29.62,10,8,2,17,9,34,0.23,6,Rain,215
2012-10-16,52,46,34,42,33,30,89,63,46,29.93,29.77,29.68,10,10,10,20,10,29,0.00,5,,274
2012-10-17,62,46,30,39,33,28,93,78,32,30.01,29.97,29.92,10,8,2,7,2,,0.00,1,,275
2012-10-18,66,51,36,46,39,32,93,65,28,30.08,30.03,29.98,10,10,10,15,4,25,0.00,1,,116
2012-10-19,64,58,55,61,56,47,100,91,74,30.01,29.80,29.68,10,5,1,14,7,21,1.20,8,Rain,97
2012-10-20,71,60,50,59,50,36,100,79,32,29.76,29.68,29.60,10,6,0,14,4,23,0.00,3,Fog,221
2012-10-21,60,51,43,39,38,35,86,60,44,29.94,29.88,29.78,10,10,10,17,8,28,0.00,7,,272
2012-10-22,61,56,50,43,40,37,71,58,46,30.04,29.98,29.92,10,10,10,16,13,25,0.00,4,,273
2012-10-23,60,48,37,45,40,35,96,72,51,30.16,30.11,30.07,10,9,5,6,1,,0.00,4,,264
2012-10-24,55,53,51,48,38,28,89,61,41,30.22,30.16,30.12,10,10,10,5,1,,0.00,8,,91
2012-10-25,64,54,45,47,44,36,93,71,49,30.28,30.23,30.21,10,10,10,7,1,,0.00,6,,97
2012-10-26,68,57,48,51,50,47,94,81,54,30.23,30.18,30.12,10,10,8,5,0,,0.00,6,,300
2012-10-27,59,54,48,52,50,46,96,87,75,30.13,30.05,30.00,10,8,2,8,2,,0.00,7,,109
2012-10-28,57,54,50,52,42,34,94,65,48,30.00,29.93,29.80,10,10,6,13,5,21,0.00,6,,90
2012-10-29,63,58,52,57,51,42,88,76,66,29.76,29.31,29.07,10,6,2,23,11,54,0.55,8,Rain,79
2012-10-30,63,59,55,53,48,44,83,67,52,29.49,29.38,29.18,10,10,9,18,13,41,0.07,7,Rain,102
2012-10-31,55,50,44,51,38,32,90,69,52,29.55,29.49,29.42,10,9,3,12,7,21,0.17,8,Rain,206